Augusta, Ohio
Current Conditions -  °F | °C
As of 9:36 PM on Wednesday 17 Dec 2014 (Local Time) from KPHD Reporting Station
Overcast Overcast  
Wind Chill: 21°   Ceiling: 3100
Heat Index: 30°   Visibility: 10mi
Dew Point: 20°   Wind: 10mph
Humidity: 66%   Direction: 280°W
Pressure: 30.19"   Gusts: NA
Location:  40.69°N, 81.02°W
Report Text: KPHD 180236Z AUTO 28009KT 10SM SCT021 OVC031 M01/M07 A3019 RMK AO2 UPE0156SNB0156E0159 P0000 T10111067
Loading
Personal Weather Stations






























Interactive Weather Map New forecast layout! Learn more

10-Day Weather Forecast

Advertisements
Track Severe Weather on mobile